.
WxDataArchive / Data Records for 2016-05-15
2016-05-14 May 2016 2016-05-16

Data Records for Sunday, 15 May 2016

Time	Temp	Chill	HIndex	Humid	Dewpt	 Wind 	HiWind	WindDir	Rain 	Barom
-----	----	-----	------	-----	-----	------	------	-------	-----	-----
00:00	41.5	41.5	41.5	64	30.2	0	1	292	0.00	30.015 
00:05	41.3	41.3	41.3	64	30.1	0	2	292	0.00	30.015 
00:10	41.3	41.3	41.3	64	30.1	0	2	292	0.00	30.015 
00:15	41.3	41.3	41.3	64	30.1	0	2	292	0.00	30.016 
00:20	41.3	41.3	41.3	65	30.4	0	0	---	0.00	30.016 
00:25	41.3	41.3	41.3	65	30.4	0	1	292	0.00	30.016 
00:30	41.2	41.2	41.2	65	30.3	0	1	292	0.00	30.012 
00:35	41.2	41.2	41.2	65	30.3	0	1	292	0.00	30.012 
00:40	41.2	41.2	41.2	65	30.3	0	2	292	0.00	30.012 
00:45	41.1	41.1	41.1	64	29.9	0	3	292	0.00	30.009 
00:50	41.1	41.1	41.1	64	29.9	0	2	292	0.00	30.009 
00:55	41.1	41.1	41.1	64	29.9	0	1	292	0.00	30.009 
01:00	41.1	41.1	41.1	64	29.9	1	3	292	0.00	30.006 
01:05	41.1	41.1	41.1	64	29.9	0	1	292	0.00	30.006 
01:10	41.1	41.1	41.1	64	29.9	0	1	292	0.00	30.006 
01:15	41.1	41.1	41.1	64	29.9	0	1	292	0.00	30.004 
01:20	40.9	40.9	40.9	64	29.7	0	1	292	0.00	30.004 
01:25	40.9	40.9	40.9	65	30.1	0	3	292	0.00	30.004 
01:30	40.9	40.9	40.9	65	30.1	0	1	292	0.00	30.003 
01:35	40.9	40.9	40.9	66	30.4	0	0	---	0.00	30.003 
01:40	40.8	40.8	40.8	67	30.7	0	0	---	0.00	30.003 
01:45	40.8	40.8	40.8	67	30.7	0	0	---	0.00	30.002 
01:50	40.8	40.8	40.8	68	31.1	0	0	---	0.00	30.002 
01:55	40.8	40.8	40.8	68	31.1	0	1	292	0.00	30.002 
02:00	40.8	40.8	40.8	68	31.1	0	0	---	0.00	30.003 
02:05	40.6	40.6	40.6	69	31.2	0	0	---	0.00	30.003 
02:10	40.6	40.6	40.6	69	31.2	0	0	---	0.00	30.003 
02:15	40.6	40.6	40.6	69	31.2	0	1	292	0.00	30.003 
02:20	40.6	40.6	40.6	69	31.2	0	0	---	0.00	30.003 
02:25	40.6	40.6	40.6	69	31.2	0	1	292	0.00	30.003 
02:30	40.6	40.6	40.6	69	31.2	0	0	---	0.00	30.000 
02:35	40.6	40.6	40.6	69	31.2	0	1	292	0.00	30.000 
02:40	40.6	40.6	40.6	69	31.2	0	1	292	0.00	30.000 
02:45	40.6	40.6	40.6	69	31.2	0	0	---	0.00	29.998 
02:50	40.6	40.6	40.6	69	31.2	0	0	---	0.00	29.998 
02:55	40.6	40.6	40.6	69	31.2	0	0	---	0.00	29.998 
03:00	40.6	40.6	40.6	69	31.2	0	1	292	0.00	29.996 
03:05	40.6	40.6	40.6	69	31.2	0	1	292	0.00	29.996 
03:10	40.6	40.6	40.6	70	31.6	0	1	292	0.00	29.996 
03:15	40.6	40.6	40.6	69	31.2	0	3	292	0.00	29.993 
03:20	40.6	40.6	40.6	69	31.2	0	1	292	0.00	29.993 
03:25	40.6	40.6	40.6	69	31.2	0	1	292	0.00	29.993 
03:30	40.5	40.5	40.5	69	31.1	0	1	292	0.00	29.988 
03:35	40.3	40.3	40.3	69	31.0	0	0	---	0.00	29.988 
03:40	40.2	40.2	40.2	70	31.2	0	0	---	0.00	29.988 
03:45	40.1	40.1	40.1	71	31.5	0	0	---	0.00	29.988 
03:50	39.9	39.9	39.9	71	31.3	0	0	---	0.00	29.988 
03:55	39.8	39.8	39.8	72	31.5	0	0	---	0.00	29.988 
04:00	39.6	39.6	39.6	72	31.3	0	0	---	0.00	29.987 
04:05	39.5	39.5	39.5	72	31.2	0	0	---	0.00	29.987 
04:10	39.5	39.5	39.5	73	31.6	0	0	---	0.00	29.987 
04:15	39.3	39.3	39.3	73	31.4	0	0	---	0.00	29.991 
04:20	39.3	39.3	39.3	73	31.4	0	0	---	0.00	29.991 
04:25	39.2	39.2	39.2	73	31.3	0	0	---	0.00	29.991 
04:30	39.2	39.2	39.2	74	31.6	0	0	---	0.00	29.993 
04:35	39.2	39.2	39.2	74	31.6	0	1	292	0.00	29.993 
04:40	39.1	39.1	39.1	74	31.5	0	0	---	0.00	29.993 
04:45	39.1	39.1	39.1	74	31.5	0	0	---	0.00	30.002 
04:50	38.9	38.9	38.9	75	31.7	0	1	292	0.00	30.002 
04:55	38.9	38.9	38.9	75	31.7	0	0	---	0.00	30.002 
05:00	38.8	38.8	38.8	75	31.6	0	1	292	0.00	30.004 
05:05	38.6	38.6	38.6	76	31.7	0	0	---	0.00	30.004 
05:10	38.5	38.5	38.5	76	31.6	0	0	---	0.00	30.004 
05:15	38.3	38.3	38.3	77	31.7	0	0	---	0.00	30.005 
05:20	38.2	38.2	38.2	77	31.6	0	0	---	0.00	30.005 
05:25	38.0	38.0	38.0	78	31.8	0	0	---	0.00	30.005 
05:30	37.9	37.9	37.9	78	31.7	0	0	---	0.00	30.007 
05:35	37.8	37.8	37.8	78	31.6	0	0	---	0.00	30.007 
05:40	37.8	37.8	37.8	79	31.9	0	1	292	0.00	30.007 
05:45	37.9	37.9	37.9	79	32.0	0	1	292	0.00	30.013 
05:50	38.0	38.0	38.0	78	31.8	0	2	292	0.00	30.013 
05:55	38.2	38.2	38.2	77	31.6	0	3	292	0.00	30.013 
06:00	38.3	38.3	38.3	75	31.1	0	2	292	0.00	30.014 
06:05	38.5	38.5	38.5	74	30.9	0	3	292	0.00	30.014 
06:10	38.6	38.6	38.6	73	30.7	0	3	292	0.00	30.014 
06:15	38.6	38.6	38.6	73	30.7	0	2	292	0.00	30.020 
06:20	38.6	38.6	38.6	73	30.7	0	1	292	0.00	30.020 
06:25	38.5	38.5	38.5	73	30.6	0	3	292	0.00	30.020 
06:30	38.5	38.5	38.5	73	30.6	0	2	292	0.00	30.021 
06:35	38.3	38.3	38.3	74	30.8	0	1	292	0.00	30.021 
06:40	38.3	38.3	38.3	74	30.8	0	1	292	0.00	30.021 
06:45	38.2	38.2	38.2	74	30.7	0	2	292	0.00	30.026 
06:50	38.2	38.2	38.2	75	31.0	0	1	292	0.00	30.026 
06:55	38.2	38.2	38.2	75	31.0	0	3	292	0.00	30.026 
07:00	38.2	38.2	38.2	75	31.0	0	1	292	0.00	30.035 
07:05	38.3	38.3	38.3	75	31.1	0	1	338	0.00	30.035 
07:10	38.3	38.3	38.3	75	31.1	0	1	338	0.00	30.035 
07:15	38.5	38.5	38.5	75	31.3	0	2	338	0.00	30.038 
07:20	38.8	38.8	38.8	74	31.2	1	3	338	0.00	30.038 
07:25	38.9	38.9	38.9	74	31.3	1	3	338	0.00	30.038 
07:30	39.2	39.2	39.2	73	31.3	1	3	338	0.00	30.041 
07:35	39.3	39.3	39.3	73	31.4	0	2	338	0.00	30.041 
07:40	39.6	39.6	39.6	73	31.7	1	3	338	0.00	30.041 
07:45	39.9	39.9	39.9	72	31.6	1	4	338	0.00	30.047 
07:50	40.2	40.2	40.2	70	31.2	2	4	338	0.00	30.047 
07:55	40.5	40.5	40.5	70	31.5	2	4	315	0.00	30.047 
08:00	40.6	40.6	40.6	68	30.9	2	4	292	0.00	30.050 
08:05	40.9	40.9	40.9	67	30.8	2	4	338	0.00	30.050 
08:10	41.1	41.1	41.1	65	30.2	3	6	292	0.00	30.050 
08:15	41.2	41.2	41.2	65	30.3	2	4	292	0.00	30.053 
08:20	41.5	41.5	41.5	63	29.9	2	5	315	0.00	30.053 
08:25	41.8	41.8	41.8	61	29.4	2	5	292	0.00	30.053 
08:30	41.8	41.8	41.8	58	28.1	2	5	270	0.00	30.053 
08:35	41.9	41.9	41.9	58	28.2	3	6	270	0.00	30.053 
08:40	42.1	42.1	42.1	58	28.4	2	6	315	0.00	30.053 
08:45	42.3	42.3	42.3	57	28.2	3	6	292	0.00	30.058 
08:50	42.5	42.5	42.5	57	28.4	1	4	292	0.00	30.058 
08:55	42.8	42.8	42.8	54	27.3	2	5	292	0.00	30.058 
09:00	43.1	43.1	43.1	54	27.6	1	6	315	0.00	30.060 
09:05	43.3	43.3	43.3	50	25.9	2	9	315	0.00	30.060 
09:10	43.3	43.3	43.3	49	25.4	3	11	315	0.00	30.060 
09:15	43.5	43.5	43.5	50	26.1	2	4	270	0.00	30.058 
09:20	43.9	43.9	43.9	50	26.5	2	4	292	0.00	30.058 
09:25	44.2	44.2	44.2	48	25.8	2	4	292	0.00	30.058 
09:30	44.3	44.3	44.3	46	24.8	2	6	292	0.00	30.062 
09:35	44.5	44.5	44.5	48	26.0	2	6	315	0.00	30.062 
09:40	44.2	42.2	44.2	46	24.7	4	7	292	0.00	30.062 
09:45	44.2	44.2	44.2	46	24.7	3	10	292	0.00	30.064 
09:50	44.5	44.5	44.5	47	25.5	2	9	292	0.00	30.064 
09:55	44.8	44.8	44.8	46	25.3	2	5	292	0.00	30.064 
10:00	44.6	44.6	44.6	45	24.6	3	9	292	0.00	30.064 
10:05	44.8	44.8	44.8	46	25.3	3	7	292	0.00	30.064 
10:10	45.2	45.2	45.2	48	26.7	2	5	292	0.00	30.064 
10:15	45.4	45.4	45.4	45	25.3	3	10	292	0.00	30.063 
10:20	45.5	45.5	45.5	45	25.4	3	5	338	0.00	30.063 
10:25	45.8	45.8	45.8	46	26.2	2	5	270	0.00	30.063 
10:30	46.2	46.2	46.2	44	25.5	3	7	270	0.00	30.059 
10:35	45.7	43.9	45.7	43	24.5	4	7	292	0.00	30.059 
10:40	45.4	45.4	45.4	45	25.3	3	7	315	0.00	30.059 
10:45	45.8	45.8	45.8	46	26.2	3	6	315	0.00	30.056 
10:50	46.1	46.1	46.1	43	24.9	3	8	292	0.00	30.056 
10:55	46.2	44.5	46.2	45	26.0	4	10	292	0.00	30.056 
11:00	46.5	44.8	46.5	43	25.2	4	11	292	0.00	30.057 
11:05	46.7	44.3	46.7	42	24.8	5	12	292	0.00	30.057 
11:10	47.0	45.4	47.0	43	25.7	4	9	292	0.00	30.057 
11:15	46.8	45.2	46.8	44	26.0	4	8	292	0.00	30.055 
11:20	46.7	46.7	46.7	42	24.8	3	7	292	0.00	30.055 
11:25	46.5	46.5	46.5	44	25.8	3	7	292	0.00	30.055 
11:30	46.4	46.4	46.4	44	25.7	3	6	292	0.00	30.064 
11:35	46.1	46.1	46.1	43	24.9	3	11	292	0.00	30.064 
11:40	46.2	46.2	46.2	46	26.6	2	4	292	0.00	30.064 
11:45	46.1	46.1	46.1	45	26.0	2	5	292	0.00	30.066 
11:50	45.7	45.7	45.7	46	26.1	3	7	315	0.00	30.066 
11:55	45.7	45.7	45.7	46	26.1	3	6	292	0.00	30.066 
12:00	45.8	45.8	45.8	47	26.7	3	5	292	0.00	30.067 
12:05	46.1	46.1	46.1	46	26.5	3	5	270	0.00	30.067 
12:10	46.4	46.4	46.4	46	26.8	3	6	292	0.00	30.067 
12:15	46.4	46.4	46.4	47	27.3	3	6	292	0.00	30.068 
12:20	46.5	46.5	46.5	47	27.4	2	5	270	0.00	30.068 
12:25	47.0	47.0	47.0	46	27.3	2	5	315	0.00	30.068 
12:30	47.6	47.6	47.6	46	27.9	2	6	292	0.00	30.065 
12:35	47.7	47.7	47.7	47	28.5	1	4	270	0.00	30.065 
12:40	47.9	47.9	47.9	44	27.0	3	6	292	0.00	30.065 
12:45	47.3	47.3	47.3	44	26.5	2	6	270	0.00	30.065 
12:50	47.0	47.0	47.0	45	26.8	2	6	292	0.00	30.065 
12:55	47.6	47.6	47.6	46	27.9	3	6	292	0.00	30.065 
13:00	47.9	47.9	47.9	43	26.5	3	7	270	0.00	30.061 
13:05	47.4	45.9	47.4	43	26.0	4	8	292	0.00	30.061 
13:10	47.1	47.1	47.1	44	26.3	3	9	270	0.00	30.061 
13:15	46.8	46.8	46.8	45	26.6	3	5	270	0.00	30.059 
13:20	47.1	47.1	47.1	45	26.9	3	7	292	0.00	30.059 
13:25	47.0	47.0	47.0	46	27.3	2	6	315	0.00	30.059 
13:30	46.8	46.8	46.8	47	27.6	3	6	292	0.00	30.056 
13:35	46.7	46.7	46.7	47	27.6	2	5	292	0.00	30.056 
13:40	46.5	46.5	46.5	47	27.4	3	7	292	0.00	30.056 
13:45	47.0	47.0	47.0	49	28.8	2	5	292	0.00	30.049 
13:50	48.2	48.2	48.2	48	29.4	2	5	292	0.00	30.049 
13:55	48.9	48.9	48.9	46	29.0	1	4	292	0.00	30.049 
14:00	48.6	48.6	48.6	43	27.1	3	9	292	0.00	30.049 
14:05	48.2	46.8	48.2	44	27.3	4	9	270	0.00	30.049 
14:10	48.8	48.8	48.8	43	27.3	3	6	270	0.00	30.049 
14:15	48.8	48.8	48.8	43	27.3	3	6	292	0.00	30.047 
14:20	48.2	46.8	48.2	43	26.8	4	9	292	0.00	30.047 
14:25	47.7	46.2	47.7	44	26.9	4	9	292	0.00	30.047 
14:30	47.7	47.7	47.7	45	27.4	3	6	270	0.00	30.050 
14:35	48.2	48.2	48.2	45	27.9	2	5	292	0.00	30.050 
14:40	48.6	48.6	48.6	46	28.8	1	5	315	0.00	30.050 
14:45	48.9	47.6	48.9	45	28.5	4	10	292	0.00	30.048 
14:50	48.8	47.5	48.8	45	28.4	4	12	292	0.00	30.048 
14:55	49.6	49.6	49.6	47	30.2	3	6	292	0.00	30.048 
15:00	49.6	49.6	49.6	46	29.7	3	9	292	0.00	30.047 
15:05	49.5	48.3	49.5	46	29.6	4	7	292	0.00	30.047 
15:10	49.4	48.2	49.4	46	29.5	4	7	270	0.00	30.047 
15:15	49.8	49.8	49.8	48	30.9	3	6	270	0.00	30.049 
15:20	50.5	50.5	50.5	49	32.1	3	6	270	0.00	30.049 
15:25	51.0	51.0	51.0	45	30.4	3	9	292	0.00	30.049 
15:30	50.8	50.8	50.8	44	29.7	3	10	338	0.00	30.052 
15:35	51.6	51.6	51.6	45	31.0	3	10	315	0.00	30.052 
15:40	49.9	48.1	49.9	45	29.4	5	11	315	0.00	30.052 
15:45	49.4	47.5	49.4	46	29.5	5	11	292	0.00	30.055 
15:50	49.8	48.6	49.8	46	29.9	4	7	292	0.00	30.055 
15:55	50.8	50.8	50.8	42	28.5	4	9	292	0.00	30.055 
16:00	50.4	50.4	50.4	39	26.4	4	11	292	0.00	30.058 
16:05	50.4	50.4	50.4	40	27.0	4	8	270	0.00	30.058 
16:10	50.1	50.1	50.1	38	25.5	5	7	292	0.00	30.058 
16:15	50.8	50.8	50.8	39	26.7	3	9	270	0.00	30.061 
16:20	50.8	50.8	50.8	34	23.5	3	7	270	0.00	30.061 
16:25	51.0	51.0	51.0	35	24.3	3	9	292	0.00	30.061 
16:30	50.4	50.4	50.4	32	21.7	5	11	292	0.00	30.065 
16:35	50.2	50.2	50.2	35	23.6	3	5	292	0.00	30.065 
16:40	50.2	50.2	50.2	35	23.6	3	12	292	0.00	30.065 
16:45	49.9	48.1	49.9	33	22.0	5	10	292	0.00	30.071 
16:50	49.4	47.5	49.4	35	22.9	5	11	292	0.00	30.071 
16:55	48.9	46.9	48.9	35	22.5	5	13	292	0.00	30.071 
17:00	48.9	46.9	48.9	37	23.8	5	10	292	0.00	30.080 
17:05	49.2	49.2	49.2	37	24.1	3	9	292	0.00	30.080 
17:10	48.9	46.9	48.9	37	23.8	5	11	315	0.00	30.080 
17:15	48.8	47.5	48.8	38	24.3	4	14	292	0.00	30.085 
17:20	48.5	47.1	48.5	38	24.1	4	13	292	0.00	30.085 
17:25	48.6	48.6	48.6	36	22.9	3	9	0	0.00	30.085 
17:30	48.6	48.6	48.6	37	23.5	3	9	292	0.00	30.090 
17:35	49.1	49.1	49.1	38	24.6	3	6	315	0.00	30.090 
17:40	48.8	46.8	48.8	35	22.4	5	10	292	0.00	30.090 
17:45	48.0	46.6	48.0	36	22.3	4	10	292	0.00	30.097 
17:50	48.2	46.1	48.2	36	22.5	5	10	292	0.00	30.097 
17:55	48.2	46.1	48.2	36	22.5	5	16	292	0.00	30.097 
18:00	47.9	46.4	47.9	35	21.6	4	14	315	0.00	30.100 
18:05	47.7	46.2	47.7	36	22.1	4	10	292	0.00	30.100 
18:10	47.7	46.2	47.7	35	21.4	4	9	315	0.00	30.100 
18:15	47.6	45.4	47.6	36	22.0	5	9	315	0.00	30.112 
18:20	47.6	46.1	47.6	35	21.3	4	7	270	0.00	30.112 
18:25	47.7	46.2	47.7	36	22.1	4	10	292	0.00	30.112 
18:30	47.4	45.2	47.4	35	21.1	5	10	292	0.00	30.116 
18:35	47.3	47.3	47.3	36	21.7	3	7	292	0.00	30.116 
18:40	47.4	47.4	47.4	36	21.8	3	7	315	0.00	30.116 
18:45	47.4	47.4	47.4	37	22.5	3	9	338	0.00	30.122 
18:50	47.4	45.9	47.4	35	21.1	4	15	315	0.00	30.122 
18:55	47.3	45.8	47.3	36	21.7	4	13	292	0.00	30.122 
19:00	47.4	47.4	47.4	37	22.5	2	5	270	0.00	30.129 
19:05	47.4	47.4	47.4	35	21.1	3	7	270	0.00	30.129 
19:10	47.4	47.4	47.4	35	21.1	3	7	292	0.00	30.129 
19:15	47.4	47.4	47.4	37	22.5	2	6	0	0.00	30.127 
19:20	47.3	47.3	47.3	35	21.0	2	9	292	0.00	30.127 
19:25	47.3	47.3	47.3	34	20.4	2	7	315	0.00	30.127 
19:30	47.1	47.1	47.1	35	20.9	3	10	292	0.00	30.128 
19:35	47.1	45.5	47.1	34	20.2	4	10	292	0.00	30.128 
19:40	47.1	47.1	47.1	35	20.9	2	9	315	0.00	30.128 
19:45	47.0	47.0	47.0	35	20.8	2	7	292	0.00	30.126 
19:50	47.1	47.1	47.1	34	20.2	2	6	292	0.00	30.126 
19:55	47.1	47.1	47.1	34	20.2	2	6	315	0.00	30.126 
20:00	47.0	47.0	47.0	36	21.4	1	7	315	0.00	30.123 
20:05	47.0	47.0	47.0	36	21.4	2	6	292	0.00	30.123 
20:10	46.8	46.8	46.8	37	21.9	0	3	248	0.00	30.123 
20:15	46.8	46.8	46.8	38	22.5	1	3	248	0.00	30.122 
20:20	46.7	46.7	46.7	39	23.1	0	1	248	0.00	30.122 
20:25	46.4	46.4	46.4	39	22.8	0	1	248	0.00	30.122 
20:30	46.2	46.2	46.2	39	22.6	0	2	248	0.00	30.126 
20:35	46.1	46.1	46.1	40	23.1	0	1	248	0.00	30.126 
20:40	46.0	46.0	46.0	41	23.6	0	0	---	0.00	30.126 
20:45	45.7	45.7	45.7	43	24.5	0	0	---	0.00	30.127 
20:50	45.4	45.4	45.4	42	23.7	0	1	248	0.00	30.127 
20:55	45.2	45.2	45.2	43	24.0	0	0	---	0.00	30.127 
21:00	44.9	44.9	44.9	44	24.3	0	0	---	0.00	30.126 
21:05	44.6	44.6	44.6	43	23.5	0	1	248	0.00	30.126 
21:10	44.3	44.3	44.3	44	23.8	0	0	---	0.00	30.126 
21:15	44.2	44.2	44.2	46	24.7	0	0	---	0.00	30.129 
21:20	43.9	43.9	43.9	48	25.5	0	0	---	0.00	30.129 
21:25	43.5	43.5	43.5	51	26.6	0	0	---	0.00	30.129 
21:30	42.9	42.9	42.9	53	27.0	0	0	---	0.00	30.136 
21:35	42.2	42.2	42.2	54	26.8	0	0	---	0.00	30.136 
21:40	41.8	41.8	41.8	54	26.4	0	0	---	0.00	30.136 
21:45	41.5	41.5	41.5	55	26.6	0	0	---	0.00	30.140 
21:50	41.2	41.2	41.2	56	26.7	0	0	---	0.00	30.140 
21:55	40.8	40.8	40.8	57	26.8	0	0	---	0.00	30.140 
22:00	40.5	40.5	40.5	58	26.9	0	0	---	0.00	30.145 
22:05	40.2	40.2	40.2	59	27.0	0	0	---	0.00	30.145 
22:10	39.9	39.9	39.9	60	27.2	0	0	---	0.00	30.145 
22:15	39.6	39.6	39.6	61	27.3	0	0	---	0.00	30.147 
22:20	39.3	39.3	39.3	62	27.4	0	0	---	0.00	30.147 
22:25	39.2	39.2	39.2	62	27.3	0	0	---	0.00	30.147 
22:30	38.9	38.9	38.9	64	27.8	0	0	---	0.00	30.149 
22:35	38.6	38.6	38.6	65	27.9	0	0	---	0.00	30.149 
22:40	38.3	38.3	38.3	65	27.6	0	0	---	0.00	30.149 
22:45	38.2	38.2	38.2	65	27.5	0	0	---	0.00	30.158 
22:50	38.0	38.0	38.0	68	28.4	0	0	---	0.00	30.158 
22:55	37.9	37.9	37.9	70	29.0	0	0	---	0.00	30.158 
23:00	37.8	37.8	37.8	71	29.3	0	0	---	0.00	30.161 
23:05	37.6	37.6	37.6	71	29.1	0	0	---	0.00	30.161 
23:10	37.5	37.5	37.5	71	29.0	0	0	---	0.00	30.161 
23:15	37.3	37.3	37.3	71	28.8	0	0	---	0.00	30.164 
23:20	37.2	37.2	37.2	72	29.0	0	0	---	0.00	30.164 
23:25	37.2	37.2	37.2	73	29.4	0	0	---	0.00	30.164 
23:30	37.0	37.0	37.0	73	29.2	0	0	---	0.00	30.164 
23:35	37.0	37.0	37.0	73	29.2	0	0	---	0.00	30.164 
23:40	37.0	37.0	37.0	73	29.2	0	0	---	0.00	30.164 
23:45	37.0	37.0	37.0	72	28.8	0	0	---	0.00	30.163 
23:50	37.2	37.2	37.2	71	28.7	0	0	---	0.00	30.163 
23:55	37.5	37.5	37.5	70	28.6	0	0	---	0.00	30.163 

CoCoRaHS
IN-AL-39
A2 Web Hosting
Creative Commons License
GoDaddy
search engine by freefind advanced

loaded 2018-11-17 14:29:31 • last modified 2010-11-18 10:43:29
Privacy PolicyDisclaimer
• wx.awcolley.com is powered by PmWiki v.2002016 •
• all content (unless otherwise noted) © 2018 A W Colley